Time;durP1;ratioP1;P1;durP2;ratioP2;P2;SDS_P1;SDS_P2;PMS_P1;PMS_P2;Temp;Humidity;BMP_temperature;BMP_pressure;BME280_temperature;BME280_humidity;BME280_pressure;Samples;Min_cycle;Max_cycle;Signal;HPM_P1;HPM_P2
2022/05/31 00:00:59;;;;;;;0.70;0.50;;;20.30;48.20;;;;;;5057491;28;20086;-64
2022/05/31 00:03:25;;;;;;;0.60;0.60;;;20.30;48.20;;;;;;5056805;28;20085;-63
2022/05/31 00:05:50;;;;;;;0.55;0.55;;;20.30;48.20;;;;;;5054565;28;20041;-63
2022/05/31 00:08:16;;;;;;;0.75;0.60;;;20.30;48.10;;;;;;5039171;28;20104;-63
2022/05/31 00:10:42;;;;;;;0.70;0.60;;;20.40;48.20;;;;;;5054322;28;20047;-63
2022/05/31 00:13:07;;;;;;;1.10;0.60;;;20.30;48.10;;;;;;5053622;28;20028;-63
2022/05/31 00:15:33;;;;;;;0.50;0.50;;;20.30;48.10;;;;;;5053564;28;20052;-64
2022/05/31 00:17:58;;;;;;;0.82;0.65;;;20.30;48.10;;;;;;5056207;28;20132;-63
2022/05/31 00:20:24;;;;;;;1.00;0.80;;;20.30;48.10;;;;;;5057738;28;20761;-63
2022/05/31 00:22:51;;;;;;;0.65;0.60;;;20.30;48.10;;;;;;5056731;28;20373;-64
2022/05/31 00:25:17;;;;;;;0.68;0.50;;;20.30;48.10;;;;;;5055564;28;20067;-64
2022/05/31 00:27:43;;;;;;;1.10;0.40;;;20.30;48.00;;;;;;5056673;28;20107;-63
2022/05/31 00:30:11;;;;;;;0.55;0.50;;;20.30;48.00;;;;;;5055351;28;20923;-63
2022/05/31 00:32:40;;;;;;;0.63;0.50;;;20.30;48.00;;;;;;5056136;28;20453;-63
2022/05/31 00:35:20;;;;;;;0.68;0.50;;;20.30;48.00;;;;;;5056621;28;20071;-63
2022/05/31 00:37:46;;;;;;;0.50;0.40;;;20.30;47.90;;;;;;5061465;28;20037;-63
2022/05/31 00:40:14;;;;;;;0.68;0.50;;;20.30;48.00;;;;;;5055559;28;20047;-63
2022/05/31 00:42:59;;;;;;;0.63;0.47;;;20.30;47.90;;;;;;5056931;28;20040;-63
2022/05/31 00:46:00;;;;;;;0.47;0.40;;;20.30;47.90;;;;;;5056881;28;20396;-63
2022/05/31 00:48:31;;;;;;;0.68;0.60;;;20.30;47.90;;;;;;5053319;28;20033;-63
2022/05/31 00:51:04;;;;;;;0.40;0.40;;;20.30;48.00;;;;;;5036600;28;20041;-63
2022/05/31 00:53:37;;;;;;;0.47;0.43;;;20.20;47.80;;;;;;5055318;28;20102;-63
2022/05/31 00:56:12;;;;;;;0.47;0.47;;;20.20;47.80;;;;;;5054429;28;20044;-63
2022/05/31 00:58:42;;;;;;;0.68;0.68;;;20.30;47.80;;;;;;5055860;28;20545;-63
2022/05/31 01:01:11;;;;;;;0.55;0.40;;;20.20;47.70;;;;;;5056198;28;20167;-63
2022/05/31 01:03:40;;;;;;;0.82;0.52;;;20.20;47.70;;;;;;5054973;28;20041;-63
2022/05/31 01:06:07;;;;;;;0.50;0.50;;;20.20;47.70;;;;;;5056512;28;20033;-63
2022/05/31 01:08:34;;;;;;;0.95;0.60;;;20.20;47.70;;;;;;5057722;28;20683;-64
2022/05/31 01:11:01;;;;;;;0.60;0.60;;;20.30;47.70;;;;;;5056592;28;20366;-63
2022/05/31 01:13:28;;;;;;;1.17;0.52;;;20.20;47.70;;;;;;5054981;28;20040;-63
2022/05/31 01:16:03;;;;;;;0.75;0.50;;;20.20;47.70;;;;;;5056334;28;20044;-63
2022/05/31 01:18:29;;;;;;;1.55;0.50;;;20.20;47.60;;;;;;5054098;28;20158;-63
2022/05/31 01:20:55;;;;;;;0.40;0.40;;;20.20;47.70;;;;;;5043420;28;20110;-63
2022/05/31 01:23:23;;;;;;;1.63;0.50;;;20.20;47.70;;;;;;5056955;28;20037;-63
2022/05/31 01:26:03;;;;;;;0.40;0.40;;;20.20;47.70;;;;;;5055676;28;20048;-63
2022/05/31 01:28:34;;;;;;;0.50;0.50;;;20.20;47.70;;;;;;5061025;28;20036;-63
2022/05/31 01:31:21;;;;;;;0.93;0.60;;;20.20;47.60;;;;;;5058361;28;20281;-63
2022/05/31 01:34:18;;;;;;;1.35;0.63;;;20.20;47.70;;;;;;5059255;28;20141;-63
2022/05/31 01:36:55;;;;;;;0.50;0.50;;;20.20;47.60;;;;;;5059779;28;20412;-63
2022/05/31 01:39:38;;;;;;;0.90;0.57;;;20.20;47.70;;;;;;5061107;28;20037;-63
2022/05/31 01:42:07;;;;;;;0.80;0.57;;;20.20;47.60;;;;;;5057794;28;20044;-63
2022/05/31 01:44:37;;;;;;;0.52;0.52;;;20.20;47.60;;;;;;5058251;28;20036;-63
2022/05/31 01:47:03;;;;;;;0.53;0.50;;;20.20;47.60;;;;;;5060035;28;20115;-63
2022/05/31 01:49:33;;;;;;;1.48;0.77;;;20.10;47.60;;;;;;5058479;28;20120;-63
2022/05/31 01:52:00;;;;;;;0.68;0.68;;;20.10;47.50;;;;;;5040694;28;20068;-63
2022/05/31 01:54:26;;;;;;;0.43;0.43;;;20.20;47.60;;;;;;5056992;28;20083;-63
2022/05/31 01:56:58;;;;;;;0.50;0.50;;;20.10;47.60;;;;;;5055962;28;20039;-63
2022/05/31 01:59:24;;;;;;;0.60;0.60;;;20.20;47.60;;;;;;5054858;28;20098;-63
2022/05/31 02:01:51;;;;;;;0.85;0.57;;;20.10;47.60;;;;;;5050468;28;20036;-63
2022/05/31 02:04:17;;;;;;;0.77;0.40;;;20.10;47.60;;;;;;5053951;28;20045;-64
2022/05/31 02:06:43;;;;;;;0.40;0.30;;;20.10;47.60;;;;;;5042616;28;20086;-63
2022/05/31 02:09:11;;;;;;;0.60;0.55;;;20.10;47.60;;;;;;5053613;28;20556;-64
2022/05/31 02:11:38;;;;;;;1.00;0.52;;;20.10;47.60;;;;;;5054649;28;20327;-63
2022/05/31 02:14:05;;;;;;;0.43;0.43;;;20.10;47.60;;;;;;5057093;28;20052;-63
2022/05/31 02:16:31;;;;;;;0.50;0.47;;;20.10;47.60;;;;;;5055823;28;20037;-63
2022/05/31 02:19:15;;;;;;;1.10;0.50;;;20.10;47.60;;;;;;5056613;28;20048;-63
2022/05/31 02:21:41;;;;;;;0.52;0.50;;;20.10;47.70;;;;;;5037225;28;20045;-63
2022/05/31 02:24:10;;;;;;;0.60;0.50;;;20.20;47.70;;;;;;5057364;28;20755;-63
2022/05/31 02:26:41;;;;;;;0.52;0.40;;;20.20;47.70;;;;;;5055544;28;20036;-63
2022/05/31 02:29:09;;;;;;;0.85;0.40;;;20.10;47.70;;;;;;5057057;28;20044;-64
2022/05/31 02:31:35;;;;;;;0.70;0.50;;;20.10;47.70;;;;;;5057237;28;20033;-64
2022/05/31 02:34:02;;;;;;;1.10;0.90;;;20.10;47.70;;;;;;5056252;28;20149;-63
2022/05/31 02:36:28;;;;;;;0.75;0.50;;;20.10;47.60;;;;;;5055196;28;20852;-63
2022/05/31 02:38:54;;;;;;;0.77;0.50;;;20.10;47.70;;;;;;5056288;28;20044;-63
2022/05/31 02:41:20;;;;;;;0.50;0.50;;;20.10;47.70;;;;;;5057309;28;20032;-63
2022/05/31 02:43:46;;;;;;;0.50;0.50;;;20.10;47.70;;;;;;5056166;28;20120;-63
2022/05/31 02:46:11;;;;;;;0.75;0.60;;;20.10;47.70;;;;;;5054322;28;20494;-63
2022/05/31 02:48:37;;;;;;;0.47;0.40;;;20.10;47.70;;;;;;5057191;28;20082;-64
2022/05/31 02:51:03;;;;;;;0.68;0.52;;;20.10;47.70;;;;;;5053265;28;20043;-63
2022/05/31 02:53:29;;;;;;;0.50;0.50;;;20.10;47.70;;;;;;5056070;28;20123;-63
2022/05/31 02:55:58;;;;;;;0.50;0.40;;;20.10;47.70;;;;;;5056094;28;20068;-63
2022/05/31 02:58:25;;;;;;;0.40;0.40;;;20.10;47.70;;;;;;5038419;28;20784;-64
2022/05/31 03:00:51;;;;;;;0.47;0.40;;;20.10;47.70;;;;;;5053940;28;20112;-63
2022/05/31 03:03:16;;;;;;;0.90;0.63;;;20.10;47.70;;;;;;5052978;28;20123;-64
2022/05/31 03:05:42;;;;;;;0.40;0.40;;;20.10;47.80;;;;;;5056996;28;20040;-63
2022/05/31 03:08:08;;;;;;;0.73;0.60;;;20.10;47.80;;;;;;5056027;28;20094;-64
2022/05/31 03:10:36;;;;;;;1.02;0.30;;;20.10;47.80;;;;;;5056605;28;20040;-64
2022/05/31 03:13:02;;;;;;;0.50;0.50;;;20.10;47.70;;;;;;5055454;28;20052;-64
2022/05/31 03:15:32;;;;;;;0.75;0.60;;;20.10;47.80;;;;;;5056700;28;20047;-63
2022/05/31 03:18:05;;;;;;;0.40;0.40;;;20.10;47.80;;;;;;5057155;28;20047;-63
2022/05/31 03:20:46;;;;;;;0.40;0.40;;;20.10;47.80;;;;;;5054776;28;20056;-63
2022/05/31 03:23:14;;;;;;;0.65;0.65;;;20.10;48.50;;;;;;5053816;28;20043;-63
2022/05/31 03:25:40;;;;;;;0.70;0.70;;;20.00;47.70;;;;;;5052763;28;20112;-63
2022/05/31 03:28:09;;;;;;;0.40;0.40;;;20.00;47.70;;;;;;5054235;28;20036;-63
2022/05/31 03:30:36;;;;;;;1.08;0.40;;;20.00;47.70;;;;;;5056564;28;21310;-63
2022/05/31 03:33:04;;;;;;;0.70;0.57;;;20.00;47.80;;;;;;5054262;28;20111;-63
2022/05/31 03:35:29;;;;;;;0.60;0.50;;;20.10;47.80;;;;;;5053133;28;20049;-63
2022/05/31 03:37:55;;;;;;;0.50;0.43;;;20.00;47.80;;;;;;5056509;28;20389;-63
2022/05/31 03:43:05;;;;;;;0.77;0.45;;;20.00;47.80;;;;;;5054422;28;20044;-63
2022/05/31 03:45:33;;;;;;;0.40;0.40;;;20.10;47.90;;;;;;5054087;28;20032;-63
2022/05/31 03:47:58;;;;;;;0.57;0.38;;;20.00;47.80;;;;;;5056248;28;20123;-63
2022/05/31 03:50:24;;;;;;;0.55;0.50;;;20.00;47.80;;;;;;5054240;28;20464;-63
2022/05/31 03:52:49;;;;;;;1.27;0.50;;;20.00;47.80;;;;;;5055474;28;20563;-63
2022/05/31 03:55:15;;;;;;;1.25;0.50;;;20.00;47.80;;;;;;5053293;28;20045;-63
2022/05/31 03:57:40;;;;;;;1.60;0.50;;;20.00;47.90;;;;;;5053656;28;20045;-63
2022/05/31 04:00:08;;;;;;;0.68;0.50;;;20.00;47.90;;;;;;5054741;28;20033;-63
2022/05/31 04:02:34;;;;;;;0.50;0.40;;;20.00;47.90;;;;;;5048333;28;20032;-63
2022/05/31 04:05:00;;;;;;;1.17;0.40;;;20.00;47.90;;;;;;5050108;28;20708;-63
2022/05/31 04:07:25;;;;;;;0.50;0.50;;;20.00;47.80;;;;;;5052994;28;20041;-63
2022/05/31 04:09:52;;;;;;;0.75;0.60;;;20.00;47.90;;;;;;5054400;28;20099;-63
2022/05/31 04:12:18;;;;;;;0.45;0.40;;;20.00;47.90;;;;;;5052576;28;20964;-63
2022/05/31 04:14:43;;;;;;;0.40;0.40;;;20.00;47.90;;;;;;5052222;28;20040;-63
2022/05/31 04:17:09;;;;;;;1.27;0.50;;;20.00;47.90;;;;;;5050976;28;20033;-63
2022/05/31 04:19:35;;;;;;;0.73;0.50;;;20.00;47.90;;;;;;5055017;28;20036;-63
2022/05/31 04:22:00;;;;;;;0.50;0.50;;;20.00;48.00;;;;;;5053109;28;20099;-63
2022/05/31 04:24:26;;;;;;;1.05;0.40;;;20.00;47.90;;;;;;5052542;28;20068;-63
2022/05/31 04:26:51;;;;;;;0.65;0.50;;;20.00;47.90;;;;;;5052443;28;20035;-63
2022/05/31 04:29:17;;;;;;;0.95;0.60;;;20.00;48.00;;;;;;5053620;28;20421;-63
2022/05/31 04:31:43;;;;;;;0.50;0.50;;;20.00;48.00;;;;;;5052815;28;20056;-63
2022/05/31 04:34:08;;;;;;;0.80;0.55;;;20.00;47.90;;;;;;5052177;28;20090;-63
2022/05/31 04:36:34;;;;;;;1.10;0.70;;;20.00;47.90;;;;;;5052435;28;20493;-63
2022/05/31 04:39:00;;;;;;;1.48;0.50;;;20.00;47.90;;;;;;5053227;28;20412;-62
2022/05/31 04:41:28;;;;;;;0.50;0.50;;;20.00;47.80;;;;;;5055172;28;20051;-63
2022/05/31 04:43:59;;;;;;;1.45;0.60;;;20.00;47.70;;;;;;5052208;28;20144;-63
2022/05/31 04:46:28;;;;;;;0.93;0.47;;;20.00;47.60;;;;;;5053706;28;20036;-62
2022/05/31 04:48:55;;;;;;;0.63;0.50;;;20.00;47.60;;;;;;5055257;28;20048;-63
2022/05/31 04:51:20;;;;;;;1.77;0.40;;;20.00;47.60;;;;;;5053634;28;20040;-62
2022/05/31 04:53:46;;;;;;;1.48;0.50;;;20.00;47.60;;;;;;5052022;28;20036;-62
2022/05/31 04:56:17;;;;;;;1.85;0.75;;;20.00;47.70;;;;;;5054219;28;20125;-62
2022/05/31 04:58:43;;;;;;;0.93;0.47;;;20.00;48.40;;;;;;5051839;28;20052;-62
2022/05/31 05:01:08;;;;;;;0.68;0.40;;;20.00;47.80;;;;;;5054827;28;20033;-62
2022/05/31 05:03:35;;;;;;;1.35;0.60;;;20.00;47.90;;;;;;5058714;28;20285;-62
2022/05/31 05:06:06;;;;;;;2.03;0.60;;;20.00;47.90;;;;;;5056398;28;20079;-62
2022/05/31 05:08:33;;;;;;;0.77;0.73;;;20.00;47.90;;;;;;5039763;28;20044;-62
2022/05/31 05:11:03;;;;;;;0.70;0.68;;;20.00;47.90;;;;;;5041296;28;20121;-62
2022/05/31 05:13:30;;;;;;;1.02;0.50;;;20.00;47.90;;;;;;5057499;28;20049;-62
2022/05/31 05:15:56;;;;;;;2.60;0.50;;;20.00;47.90;;;;;;5056895;28;20040;-62
2022/05/31 05:18:22;;;;;;;0.43;0.35;;;20.00;47.90;;;;;;5059593;28;20044;-62
2022/05/31 05:20:48;;;;;;;1.88;0.50;;;20.00;47.90;;;;;;5040345;28;20048;-62
2022/05/31 05:23:14;;;;;;;2.08;0.80;;;20.00;47.90;;;;;;5058303;28;20033;-62
2022/05/31 05:25:39;;;;;;;1.45;0.70;;;20.00;47.90;;;;;;5058114;28;20114;-62
2022/05/31 05:30:50;;;;;;;0.63;0.50;;;20.00;47.90;;;;;;5057264;28;20098;-62
2022/05/31 05:33:16;;;;;;;0.52;0.52;;;20.00;47.90;;;;;;5056665;28;20456;-62
2022/05/31 05:35:42;;;;;;;0.52;0.50;;;20.00;47.90;;;;;;5056630;28;20055;-63
2022/05/31 05:38:08;;;;;;;1.73;0.55;;;20.00;47.90;;;;;;5059303;28;20094;-63
2022/05/31 05:40:35;;;;;;;1.65;0.70;;;20.00;48.00;;;;;;5059465;28;20039;-63
2022/05/31 05:43:00;;;;;;;1.50;0.50;;;20.10;48.00;;;;;;5055563;28;20044;-63
2022/05/31 05:45:26;;;;;;;0.50;0.50;;;20.00;48.00;;;;;;5047012;28;20033;-62
2022/05/31 05:47:52;;;;;;;1.15;0.50;;;20.10;48.00;;;;;;5058723;28;20044;-63
2022/05/31 05:50:17;;;;;;;1.58;0.60;;;20.10;48.00;;;;;;5056269;28;20036;-63
2022/05/31 05:52:48;;;;;;;0.85;0.65;;;20.10;48.10;;;;;;5058147;28;20113;-62
2022/05/31 05:55:13;;;;;;;0.93;0.60;;;20.10;48.10;;;;;;5056498;28;20478;-62
2022/05/31 05:57:39;;;;;;;0.75;0.50;;;20.10;48.10;;;;;;5058593;28;20040;-62
2022/05/31 06:00:06;;;;;;;0.50;0.50;;;20.10;48.10;;;;;;5057740;28;20116;-63
2022/05/31 06:02:32;;;;;;;2.45;0.70;;;20.10;48.10;;;;;;5058150;28;20459;-62
2022/05/31 06:05:09;;;;;;;0.52;0.40;;;20.10;48.20;;;;;;5056658;28;20072;-62
2022/05/31 06:07:40;;;;;;;0.40;0.40;;;20.10;48.10;;;;;;5055891;28;20083;-63
2022/05/31 06:10:16;;;;;;;1.20;0.60;;;20.10;48.90;;;;;;5054791;28;20040;-62
2022/05/31 06:12:49;;;;;;;0.57;0.50;;;20.10;48.20;;;;;;5057499;28;20052;-63
2022/05/31 06:15:19;;;;;;;0.40;0.40;;;20.10;48.20;;;;;;5056464;28;20121;-63
2022/05/31 06:17:48;;;;;;;0.50;0.50;;;20.20;48.20;;;;;;5054602;28;20041;-63
2022/05/31 06:20:15;;;;;;;4.97;0.40;;;20.10;48.20;;;;;;5057066;28;20332;-63
2022/05/31 06:22:41;;;;;;;0.68;0.40;;;20.20;48.30;;;;;;5058969;28;20119;-63
2022/05/31 06:25:10;;;;;;;1.05;0.32;;;20.10;48.20;;;;;;5060146;28;20044;-63
2022/05/31 06:27:36;;;;;;;1.02;0.43;;;20.10;48.20;;;;;;5056321;28;20041;-62
2022/05/31 06:30:02;;;;;;;2.10;0.45;;;20.20;48.30;;;;;;5057854;28;20044;-63
2022/05/31 06:32:27;;;;;;;0.60;0.43;;;20.20;48.30;;;;;;5057239;28;20056;-63
2022/05/31 06:34:53;;;;;;;1.27;0.50;;;20.20;49.10;;;;;;5054472;28;20489;-63
2022/05/31 06:37:18;;;;;;;0.65;0.38;;;20.20;48.40;;;;;;5054470;28;20053;-63
2022/05/31 06:39:45;;;;;;;0.95;0.60;;;20.20;48.40;;;;;;5056641;28;20045;-63
2022/05/31 06:42:11;;;;;;;0.65;0.50;;;20.20;48.40;;;;;;5056965;28;20037;-62
2022/05/31 06:44:39;;;;;;;1.58;0.95;;;20.20;49.20;;;;;;5057244;28;20040;-62
2022/05/31 06:47:07;;;;;;;1.15;0.45;;;20.30;48.60;;;;;;5056720;28;20120;-62
2022/05/31 06:49:34;;;;;;;1.80;0.50;;;20.30;48.60;;;;;;5038390;28;20052;-63
2022/05/31 06:57:35;;;;;;;0.75;0.40;;;20.30;48.60;;;;;;5055688;28;20144;-63
2022/05/31 07:00:02;;;;;;;;;;;20.30;48.70;;;;;;5056439;28;20090;-63
2022/05/31 07:02:27;;;;;;;1.58;0.70;;;20.30;48.80;;;;;;5056586;28;19924;-63
2022/05/31 07:04:56;;;;;;;0.70;0.40;;;20.30;48.90;;;;;;5056481;28;20087;-63
2022/05/31 07:07:22;;;;;;;1.08;0.55;;;20.30;49.10;;;;;;5057746;28;20068;-62
2022/05/31 07:09:47;;;;;;;3.78;0.50;;;20.30;49.20;;;;;;5054315;28;20059;-62
2022/05/31 07:12:13;;;;;;;1.50;0.50;;;20.40;49.30;;;;;;5055702;28;20113;-62
2022/05/31 07:14:38;;;;;;;1.15;0.40;;;20.40;49.40;;;;;;5054255;28;20040;-62
2022/05/31 07:17:04;;;;;;;2.13;0.50;;;20.40;49.60;;;;;;5054761;28;20132;-62
2022/05/31 07:19:30;;;;;;;0.70;0.50;;;20.40;49.60;;;;;;5056032;28;20055;-62
2022/05/31 07:22:00;;;;;;;1.48;0.40;;;20.50;49.80;;;;;;5054933;28;20048;-62
2022/05/31 07:24:26;;;;;;;0.60;0.50;;;20.50;49.80;;;;;;5055396;28;20364;-62
2022/05/31 07:26:52;;;;;;;2.42;0.47;;;20.50;49.90;;;;;;5058074;28;20067;-62
2022/05/31 07:29:18;;;;;;;2.10;0.60;;;20.50;49.80;;;;;;5053942;28;20048;-63
2022/05/31 07:31:44;;;;;;;0.65;0.40;;;20.50;49.80;;;;;;5054675;28;20642;-63
2022/05/31 07:34:14;;;;;;;2.35;0.52;;;20.50;49.90;;;;;;5052909;28;20051;-63
2022/05/31 07:36:40;;;;;;;0.80;0.50;;;20.50;49.90;;;;;;5055371;28;20335;-63
2022/05/31 07:39:10;;;;;;;0.80;0.47;;;20.50;49.90;;;;;;5054006;28;20150;-62
2022/05/31 07:41:35;;;;;;;1.45;0.52;;;20.50;50.70;;;;;;5057569;28;20072;-62
2022/05/31 07:44:01;;;;;;;1.42;0.50;;;20.60;50.00;;;;;;5057727;28;20480;-63
2022/05/31 07:46:29;;;;;;;0.57;0.50;;;20.60;50.00;;;;;;5056848;28;20041;-63
2022/05/31 07:48:56;;;;;;;5.15;0.70;;;20.60;50.00;;;;;;5052312;28;20084;-62
2022/05/31 07:51:21;;;;;;;0.60;0.40;;;20.60;50.00;;;;;;5052421;28;20045;-64
2022/05/31 07:53:47;;;;;;;1.25;0.50;;;20.60;49.90;;;;;;5057297;28;20052;-63
2022/05/31 07:56:12;;;;;;;1.77;0.65;;;20.70;50.70;;;;;;5055167;28;20059;-64
2022/05/31 07:58:42;;;;;;;1.48;0.47;;;20.70;49.90;;;;;;5055366;28;20361;-63
2022/05/31 08:01:11;;;;;;;0.85;0.60;;;20.70;49.90;;;;;;5056546;28;20044;-63
2022/05/31 08:03:40;;;;;;;0.90;0.60;;;20.60;49.90;;;;;;5055247;28;20114;-64
2022/05/31 08:06:13;;;;;;;15.13;4.43;;;20.70;49.90;;;;;;5056916;28;20372;-63
2022/05/31 08:08:38;;;;;;;17.27;4.22;;;20.70;50.00;;;;;;5054672;28;20678;-63
2022/05/31 08:11:06;;;;;;;18.75;8.68;;;20.70;50.00;;;;;;5056078;28;20040;-64
2022/05/31 08:13:32;;;;;;;16.08;5.63;;;20.70;51.00;;;;;;5054872;28;20044;-63
2022/05/31 08:16:03;;;;;;;18.42;6.70;;;20.70;50.50;;;;;;5056246;28;20857;-64
2022/05/31 08:18:29;;;;;;;21.98;7.25;;;20.80;50.70;;;;;;5035900;28;20146;-63
2022/05/31 08:24:20;;;;;;;26.95;10.88;;;20.80;51.00;;;;;;5024256;28;20708;-63
2022/05/31 08:26:45;;;;;;;29.20;9.60;;;20.70;50.80;;;;;;5053342;28;20087;-63
2022/05/31 08:29:11;;;;;;;26.13;9.80;;;20.80;51.10;;;;;;5054662;28;20134;-63
2022/05/31 08:31:37;;;;;;;27.45;9.40;;;20.80;51.20;;;;;;5056079;28;20032;-63
2022/05/31 08:34:04;;;;;;;27.85;8.57;;;20.80;51.30;;;;;;5055009;28;20084;-63
2022/05/31 08:36:30;;;;;;;24.88;7.80;;;20.80;51.30;;;;;;5053755;28;20121;-63
2022/05/31 08:38:56;;;;;;;24.35;8.02;;;20.80;51.20;;;;;;5053920;28;20041;-63
2022/05/31 08:41:24;;;;;;;21.92;7.75;;;20.80;51.10;;;;;;5057333;28;20033;-63
2022/05/31 08:43:53;;;;;;;21.83;7.30;;;20.80;51.00;;;;;;5033858;28;20261;-63
2022/05/31 08:46:42;;;;;;;21.42;7.05;;;20.90;51.70;;;;;;5054053;28;20082;-63
2022/05/31 08:51:52;;;;;;;14.98;5.55;;;20.90;50.90;;;;;;5054922;28;20051;-63
2022/05/31 08:52:28;;;;;;;19.63;6.22;;;20.90;50.90;;;;;;5054966;28;20067;-63
2022/05/31 08:57:49;;;;;;;;;;;20.90;50.70;;;;;;5055489;28;20056;-63
2022/05/31 09:00:20;;;;;;;17.02;4.97;;;20.90;50.50;;;;;;5053345;28;19924;-63
2022/05/31 09:03:16;;;;;;;11.95;4.40;;;20.90;50.60;;;;;;5033400;28;20123;-63
2022/05/31 09:06:05;;;;;;;14.40;4.82;;;20.90;50.60;;;;;;5038000;28;20370;-63
2022/05/31 09:08:41;;;;;;;14.55;4.95;;;20.90;50.40;;;;;;5054050;28;20036;-63
2022/05/31 09:11:16;;;;;;;15.68;4.80;;;20.90;50.40;;;;;;5055270;28;20041;-63
2022/05/31 09:13:49;;;;;;;11.88;3.80;;;20.90;50.30;;;;;;5053128;28;20040;-63
2022/05/31 09:16:36;;;;;;;12.25;4.15;;;20.90;50.10;;;;;;5053572;28;20055;-63
2022/05/31 09:19:06;;;;;;;12.05;3.85;;;20.90;50.30;;;;;;5052410;28;20079;-63
2022/05/31 09:21:41;;;;;;;15.40;4.10;;;20.90;50.20;;;;;;5053546;28;20171;-63
2022/05/31 09:24:13;;;;;;;7.55;3.35;;;21.00;50.00;;;;;;5053022;28;20041;-63
2022/05/31 09:26:57;;;;;;;9.90;3.30;;;21.00;50.00;;;;;;5053082;28;20052;-62
2022/05/31 09:29:40;;;;;;;11.13;4.25;;;21.00;49.90;;;;;;5052398;28;20047;-63
2022/05/31 09:32:31;;;;;;;12.38;4.78;;;21.00;49.70;;;;;;5053788;28;20056;-63
2022/05/31 09:35:33;;;;;;;12.68;4.82;;;21.00;49.60;;;;;;5052373;28;20677;-63
2022/05/31 09:38:26;;;;;;;17.73;6.90;;;21.00;49.50;;;;;;5054581;28;20375;-63
2022/05/31 09:41:11;;;;;;;20.27;7.90;;;21.00;49.60;;;;;;5057747;28;20099;-64
2022/05/31 09:43:36;;;;;;;24.80;8.05;;;21.00;49.60;;;;;;5054255;28;20439;-64
2022/05/31 09:46:16;;;;;;;24.65;8.02;;;21.00;49.80;;;;;;5036833;28;20036;-63
2022/05/31 09:48:46;;;;;;;19.33;8.10;;;21.00;49.90;;;;;;5059548;28;20409;-62
2022/05/31 09:51:37;;;;;;;20.75;7.55;;;21.00;50.00;;;;;;5057154;28;20063;-63
2022/05/31 09:57:07;;;;;;;20.88;6.72;;;20.90;49.70;;;;;;5058967;28;20115;-62
2022/05/31 09:59:39;;;;;;;21.10;6.00;;;21.00;49.80;;;;;;5033596;28;20093;-62
2022/05/31 10:02:30;;;;;;;15.70;5.13;;;21.00;49.70;;;;;;5058011;28;20068;-63
2022/05/31 10:05:25;;;;;;;15.50;5.45;;;21.00;49.60;;;;;;5051026;28;20064;-63
2022/05/31 10:07:51;;;;;;;17.75;6.15;;;21.00;49.60;;;;;;5053929;28;20113;-63
2022/05/31 10:10:35;;;;;;;14.80;5.55;;;21.00;49.60;;;;;;5056243;28;20521;-63
2022/05/31 10:13:04;;;;;;;12.07;5.35;;;21.00;49.50;;;;;;5039899;28;20045;-63
2022/05/31 10:15:49;;;;;;;14.05;5.43;;;21.00;49.60;;;;;;5055791;28;20048;-62
2022/05/31 10:18:30;;;;;;;19.77;4.90;;;21.00;49.50;;;;;;5057169;28;20028;-62
2022/05/31 10:21:05;;;;;;;17.10;5.82;;;21.00;49.50;;;;;;5058113;28;20507;-63
2022/05/31 10:23:44;;;;;;;14.40;5.25;;;21.00;49.50;;;;;;5057627;28;20040;-63
2022/05/31 10:26:25;;;;;;;14.68;4.93;;;21.00;49.40;;;;;;5058295;28;20033;-63
2022/05/31 10:28:55;;;;;;;12.10;4.85;;;21.00;49.20;;;;;;5057072;28;20066;-63
2022/05/31 10:31:27;;;;;;;;;;;21.00;49.20;;;;;;5055373;28;20040;-64
2022/05/31 10:33:59;;;;;;;9.43;4.30;;;21.00;49.00;;;;;;5057170;28;19925;-63
2022/05/31 10:36:31;;;;;;;11.23;4.18;;;21.00;49.20;;;;;;5055717;28;20940;-64
2022/05/31 10:39:08;;;;;;;10.55;5.03;;;21.00;49.20;;;;;;5057342;28;20033;-63
2022/05/31 10:41:35;;;;;;;10.15;4.22;;;21.00;49.20;;;;;;5055698;28;20033;-63
2022/05/31 10:44:23;;;;;;;10.18;4.10;;;21.00;49.20;;;;;;5055376;28;20037;-64
2022/05/31 10:46:55;;;;;;;10.20;4.50;;;21.00;49.20;;;;;;5056317;28;20395;-64
2022/05/31 10:49:22;;;;;;;10.45;3.70;;;21.00;49.20;;;;;;5059013;28;20435;-63
2022/05/31 10:51:51;;;;;;;10.38;3.97;;;21.00;49.20;;;;;;5056470;28;20036;-63
2022/05/31 10:54:52;;;;;;;8.35;3.65;;;21.00;49.20;;;;;;5059168;28;20072;-64
2022/05/31 10:57:50;;;;;;;9.18;3.80;;;21.00;49.20;;;;;;5056734;28;20040;-63
2022/05/31 11:00:25;;;;;;;11.15;3.95;;;21.00;49.20;;;;;;5050508;28;20291;-63
2022/05/31 11:03:04;;;;;;;8.32;3.17;;;21.00;49.20;;;;;;5057274;28;20044;-63
2022/05/31 11:05:40;;;;;;;11.18;3.85;;;21.00;49.90;;;;;;5054929;28;20044;-63
2022/05/31 11:11:29;;;;;;;7.38;3.33;;;21.00;49.10;;;;;;5054889;28;20092;-63
2022/05/31 11:14:22;;;;;;;8.98;3.50;;;21.00;49.10;;;;;;5056887;28;20172;-63
2022/05/31 11:17:23;;;;;;;5.50;3.05;;;21.00;49.10;;;;;;5012545;28;20555;-63
2022/05/31 11:19:59;;;;;;;6.70;3.15;;;21.00;49.00;;;;;;5054698;28;20087;-63
2022/05/31 11:22:36;;;;;;;6.20;2.80;;;21.00;49.00;;;;;;5057569;28;20036;-63
2022/05/31 11:25:23;;;;;;;8.00;3.38;;;21.00;48.90;;;;;;5057190;28;20440;-63
2022/05/31 11:28:00;;;;;;;6.32;2.70;;;21.00;48.90;;;;;;5055675;28;20037;-63
2022/05/31 11:30:32;;;;;;;6.78;3.03;;;21.00;48.80;;;;;;5055201;28;20120;-63
2022/05/31 11:33:34;;;;;;;6.47;3.20;;;21.00;49.50;;;;;;5044516;28;20080;-63
2022/05/31 11:36:07;;;;;;;6.28;3.00;;;21.00;48.70;;;;;;5034941;28;20574;-63
2022/05/31 11:38:58;;;;;;;6.47;2.95;;;21.00;48.70;;;;;;5035463;28;20486;-63
2022/05/31 11:41:44;;;;;;;6.20;2.60;;;21.00;48.60;;;;;;5033097;28;20057;-63
2022/05/31 11:44:30;;;;;;;6.57;2.80;;;21.00;48.70;;;;;;5032056;28;20065;-63
2022/05/31 11:47:17;;;;;;;4.88;2.40;;;21.00;48.60;;;;;;5034681;28;20110;-63
2022/05/31 11:49:45;;;;;;;5.63;2.75;;;21.00;48.60;;;;;;5036386;28;20068;-62
2022/05/31 11:52:29;;;;;;;7.75;2.65;;;21.00;48.60;;;;;;5037688;28;20794;-62
2022/05/31 11:58:00;;;;;;;5.13;2.20;;;21.00;48.30;;;;;;5035105;28;20056;-62
2022/05/31 12:00:32;;;;;;;4.45;2.30;;;21.00;48.10;;;;;;5034133;28;20041;-62
2022/05/31 12:03:08;;;;;;;5.28;2.72;;;21.00;48.00;;;;;;5031896;28;20037;-62
2022/05/31 12:05:45;;;;;;;5.85;2.20;;;21.00;47.90;;;;;;5034556;28;20033;-62
2022/05/31 12:08:17;;;;;;;5.32;2.47;;;21.00;47.90;;;;;;5032614;28;20041;-62
2022/05/31 12:10:48;;;;;;;3.38;2.08;;;21.00;47.80;;;;;;5032983;28;20040;-63
2022/05/31 12:13:15;;;;;;;6.10;2.30;;;21.00;47.70;;;;;;5032476;28;20554;-62
2022/05/31 12:15:44;;;;;;;5.05;2.13;;;21.00;47.70;;;;;;5033893;28;20028;-62
2022/05/31 12:18:09;;;;;;;3.92;1.80;;;21.00;47.70;;;;;;5033806;28;20040;-62
2022/05/31 12:21:09;;;;;;;2.80;2.20;;;21.00;47.60;;;;;;5033241;28;20489;-63
2022/05/31 12:23:46;;;;;;;2.92;2.28;;;21.00;47.60;;;;;;5025939;28;20631;-62
2022/05/31 12:26:33;;;;;;;6.07;2.47;;;21.00;47.60;;;;;;5025625;28;20037;-63
2022/05/31 12:29:17;;;;;;;4.22;1.83;;;21.00;47.60;;;;;;5028604;28;20103;-62
2022/05/31 12:31:43;;;;;;;3.38;1.63;;;21.00;47.60;;;;;;5028699;28;20106;-63
2022/05/31 12:34:20;;;;;;;3.58;1.90;;;21.00;47.60;;;;;;5054775;28;20477;-62
2022/05/31 12:36:58;;;;;;;3.20;1.83;;;21.00;47.60;;;;;;5052570;28;20460;-62
2022/05/31 12:39:30;;;;;;;3.63;1.70;;;21.00;47.60;;;;;;5053054;28;20047;-63
2022/05/31 12:41:57;;;;;;;4.82;2.03;;;21.00;47.60;;;;;;5051171;28;20040;-62
2022/05/31 12:44:30;;;;;;;3.72;1.90;;;21.00;47.50;;;;;;5055599;28;20045;-63
2022/05/31 12:47:15;;;;;;;4.38;1.77;;;21.00;47.50;;;;;;5055809;28;20044;-62
2022/05/31 12:50:04;;;;;;;4.65;2.20;;;21.00;47.50;;;;;;5052075;28;20072;-62
2022/05/31 12:55:33;;;;;;;2.72;1.63;;;21.00;47.90;;;;;;5054752;28;20068;-62
2022/05/31 12:58:29;;;;;;;3.38;1.80;;;21.00;47.90;;;;;;5052387;28;20064;-62
2022/05/31 13:01:20;;;;;;;2.55;1.60;;;21.00;48.00;;;;;;5056785;28;20037;-62
2022/05/31 13:03:48;;;;;;;4.15;1.90;;;21.00;48.00;;;;;;5041113;28;20048;-62
2022/05/31 13:06:45;;;;;;;3.05;1.70;;;21.00;48.00;;;;;;5052784;28;20041;-62
2022/05/31 13:09:33;;;;;;;3.15;1.55;;;21.00;48.00;;;;;;5051959;28;20051;-62
2022/05/31 13:20:30;;;;;;;2.45;1.88;;;21.00;48.10;;;;;;5053436;28;21141;-62
2022/05/31 13:23:14;;;;;;;2.08;1.40;;;21.00;48.10;;;;;;5055073;28;20550;-62
2022/05/31 13:25:43;;;;;;;2.92;1.80;;;21.00;48.10;;;;;;5058843;28;20037;-62
2022/05/31 13:28:35;;;;;;;2.35;1.50;;;21.00;48.10;;;;;;5059110;28;20341;-63
2022/05/31 13:31:04;;;;;;;3.20;1.80;;;21.10;48.20;;;;;;5058759;28;20463;-63
2022/05/31 13:33:31;;;;;;;2.35;1.60;;;21.00;48.40;;;;;;5038848;28;20060;-63
2022/05/31 13:36:07;;;;;;;2.85;1.58;;;21.10;49.00;;;;;;5056196;28;20119;-62
2022/05/31 13:38:36;;;;;;;2.38;1.60;;;21.10;49.40;;;;;;5056991;28;20045;-63
2022/05/31 13:41:04;;;;;;;3.72;1.40;;;21.10;49.40;;;;;;5056401;28;20048;-63
2022/05/31 13:43:40;;;;;;;3.88;1.70;;;21.10;49.20;;;;;;5038995;28;20045;-62
2022/05/31 13:46:25;;;;;;;2.80;1.70;;;21.10;49.20;;;;;;5056433;28;20040;-62